sensor_id;sensor_type;location;lat;lon;timestamp;pressure;altitude;pressure_sealevel;temperature;humidity
77106;BME280;66057;54.718;18.426;2023-08-31T00:00:10;47517.41;;;-143.26;94.25
77106;BME280;66057;54.718;18.426;2023-08-31T00:02:56;47497.88;;;-143.26;94.41
77106;BME280;66057;54.718;18.426;2023-08-31T00:05:23;47540.81;;;-143.26;94.11
77106;BME280;66057;54.718;18.426;2023-08-31T00:07:50;47515.44;;;-143.26;93.95
77106;BME280;66057;54.718;18.426;2023-08-31T00:10:16;47536.91;;;-143.26;94.71
77106;BME280;66057;54.718;18.426;2023-08-31T00:12:43;47527.16;;;-143.26;95.00
77106;BME280;66057;54.718;18.426;2023-08-31T00:15:09;47507.63;;;-143.26;95.04
77106;BME280;66057;54.718;18.426;2023-08-31T00:17:35;47525.19;;;-143.26;95.44
77106;BME280;66057;54.718;18.426;2023-08-31T00:20:00;47525.19;;;-143.26;95.40
77106;BME280;66057;54.718;18.426;2023-08-31T00:22:26;47503.75;;;-143.26;95.46
77106;BME280;66057;54.718;18.426;2023-08-31T00:24:52;47497.88;;;-143.26;95.19
77106;BME280;66057;54.718;18.426;2023-08-31T00:27:18;47534.94;;;-143.26;94.92
77106;BME280;66057;54.718;18.426;2023-08-31T00:29:43;47523.25;;;-143.26;95.55
77106;BME280;66057;54.718;18.426;2023-08-31T00:32:15;47509.59;;;-143.26;95.70
77106;BME280;66057;54.718;18.426;2023-08-31T00:34:41;47505.69;;;-143.26;95.28
77106;BME280;66057;54.718;18.426;2023-08-31T00:37:06;47509.59;;;-143.26;95.65
77106;BME280;66057;54.718;18.426;2023-08-31T00:39:32;47529.09;;;-143.26;95.86
77106;BME280;66057;54.718;18.426;2023-08-31T00:41:59;47513.50;;;-143.26;95.24
77106;BME280;66057;54.718;18.426;2023-08-31T00:44:24;47529.09;;;-143.26;95.81
77106;BME280;66057;54.718;18.426;2023-08-31T00:46:50;47519.34;;;-143.26;95.42
77106;BME280;66057;54.718;18.426;2023-08-31T00:49:17;47521.28;;;-143.26;95.67
77106;BME280;66057;54.718;18.426;2023-08-31T00:51:45;47497.88;;;-143.26;95.23
77106;BME280;66057;54.718;18.426;2023-08-31T00:54:16;47523.25;;;-143.26;95.59
77106;BME280;66057;54.718;18.426;2023-08-31T00:56:42;47546.66;;;-143.26;96.04
77106;BME280;66057;54.718;18.426;2023-08-31T00:59:08;47517.41;;;-143.26;95.55
77106;BME280;66057;54.718;18.426;2023-08-31T01:01:42;47544.72;;;-143.26;95.90
77106;BME280;66057;54.718;18.426;2023-08-31T01:07:45;47505.69;;;-143.26;96.38
77106;BME280;66057;54.718;18.426;2023-08-31T01:10:24;47509.59;;;-143.26;95.80
77106;BME280;66057;54.718;18.426;2023-08-31T01:13:07;47529.09;;;-143.26;95.93
77106;BME280;66057;54.718;18.426;2023-08-31T01:15:38;47511.53;;;-143.26;96.46
77106;BME280;66057;54.718;18.426;2023-08-31T01:18:06;47501.78;;;-143.26;96.48
77106;BME280;66057;54.718;18.426;2023-08-31T01:20:38;47505.69;;;-143.26;96.15
77106;BME280;66057;54.718;18.426;2023-08-31T01:23:11;47507.63;;;-143.26;96.06
77106;BME280;66057;54.718;18.426;2023-08-31T01:25:38;47544.72;;;-143.26;95.89
77106;BME280;66057;54.718;18.426;2023-08-31T01:28:06;47533.00;;;-143.26;96.31
77106;BME280;66057;54.718;18.426;2023-08-31T01:30:34;47513.50;;;-143.26;96.21
77106;BME280;66057;54.718;18.426;2023-08-31T01:33:00;47505.69;;;-143.26;96.46
77106;BME280;66057;54.718;18.426;2023-08-31T01:35:26;47525.19;;;-143.26;96.27
77106;BME280;66057;54.718;18.426;2023-08-31T01:37:57;47499.84;;;-143.26;96.40
77106;BME280;66057;54.718;18.426;2023-08-31T01:41:16;47519.34;;;-143.26;96.36
77106;BME280;66057;54.718;18.426;2023-08-31T01:43:17;47493.97;;;-143.26;95.98
77106;BME280;66057;54.718;18.426;2023-08-31T01:45:43;47505.69;;;-143.26;95.86
77106;BME280;66057;54.718;18.426;2023-08-31T01:48:13;47486.19;;;-143.26;96.22
77106;BME280;66057;54.718;18.426;2023-08-31T01:50:39;47503.75;;;-143.26;96.29
77106;BME280;66057;54.718;18.426;2023-08-31T01:53:04;47534.94;;;-143.26;95.90
77106;BME280;66057;54.718;18.426;2023-08-31T01:55:32;47490.09;;;-143.26;96.22
77106;BME280;66057;54.718;18.426;2023-08-31T01:57:58;47492.03;;;-143.26;96.36
77106;BME280;66057;54.718;18.426;2023-08-31T02:00:25;47521.28;;;-143.26;96.47
77106;BME280;66057;54.718;18.426;2023-08-31T02:02:51;47544.72;;;-143.26;96.40
77106;BME280;66057;54.718;18.426;2023-08-31T02:05:16;47538.84;;;-143.26;96.54
77106;BME280;66057;54.718;18.426;2023-08-31T02:07:42;47513.50;;;-143.26;96.31
77106;BME280;66057;54.718;18.426;2023-08-31T02:10:08;47509.59;;;-143.26;96.48
77106;BME280;66057;54.718;18.426;2023-08-31T02:12:34;47519.34;;;-143.26;96.88
77106;BME280;66057;54.718;18.426;2023-08-31T02:15:03;47515.44;;;-143.26;96.91
77106;BME280;66057;54.718;18.426;2023-08-31T02:17:29;47533.00;;;-143.26;96.38
77106;BME280;66057;54.718;18.426;2023-08-31T02:19:55;47511.53;;;-143.26;96.05
77106;BME280;66057;54.718;18.426;2023-08-31T02:22:21;47497.88;;;-143.26;96.22
77106;BME280;66057;54.718;18.426;2023-08-31T02:24:46;47517.41;;;-143.26;96.66
77106;BME280;66057;54.718;18.426;2023-08-31T02:27:12;47513.50;;;-143.26;96.31
77106;BME280;66057;54.718;18.426;2023-08-31T02:29:38;47476.44;;;-143.26;96.40
77106;BME280;66057;54.718;18.426;2023-08-31T02:32:04;47529.09;;;-143.26;96.34
77106;BME280;66057;54.718;18.426;2023-08-31T02:34:30;47511.53;;;-143.26;96.34
77106;BME280;66057;54.718;18.426;2023-08-31T02:36:56;47511.53;;;-143.26;96.62
77106;BME280;66057;54.718;18.426;2023-08-31T02:39:21;47513.50;;;-143.26;96.74
77106;BME280;66057;54.718;18.426;2023-08-31T02:41:47;47517.41;;;-143.26;96.13
77106;BME280;66057;54.718;18.426;2023-08-31T02:44:13;47527.16;;;-143.26;96.22
77106;BME280;66057;54.718;18.426;2023-08-31T02:46:39;47509.59;;;-143.26;96.54
77106;BME280;66057;54.718;18.426;2023-08-31T02:49:04;47513.50;;;-143.26;96.59
77106;BME280;66057;54.718;18.426;2023-08-31T02:51:30;47486.19;;;-143.26;97.10
77106;BME280;66057;54.718;18.426;2023-08-31T02:53:56;47525.19;;;-143.26;97.19
77106;BME280;66057;54.718;18.426;2023-08-31T02:56:21;47519.34;;;-143.26;97.05
77106;BME280;66057;54.718;18.426;2023-08-31T02:58:47;47515.44;;;-143.26;97.28
77106;BME280;66057;54.718;18.426;2023-08-31T03:01:13;47501.78;;;-143.26;96.49
77106;BME280;66057;54.718;18.426;2023-08-31T03:03:41;47533.00;;;-143.26;96.48
77106;BME280;66057;54.718;18.426;2023-08-31T03:06:08;47495.94;;;-143.26;96.16
77106;BME280;66057;54.718;18.426;2023-08-31T03:08:34;47509.59;;;-143.26;96.64
77106;BME280;66057;54.718;18.426;2023-08-31T03:11:00;47495.94;;;-143.26;96.16
77106;BME280;66057;54.718;18.426;2023-08-31T03:13:25;47540.81;;;-143.26;96.64
77106;BME280;66057;54.718;18.426;2023-08-31T03:15:51;47521.28;;;-143.26;96.54
77106;BME280;66057;54.718;18.426;2023-08-31T03:18:17;47511.53;;;-143.26;96.13
77106;BME280;66057;54.718;18.426;2023-08-31T03:20:48;47517.41;;;-143.26;96.52
77106;BME280;66057;54.718;18.426;2023-08-31T03:23:15;47499.84;;;-143.26;96.02
77106;BME280;66057;54.718;18.426;2023-08-31T03:25:41;47529.09;;;-143.26;96.20
77106;BME280;66057;54.718;18.426;2023-08-31T03:28:07;47527.16;;;-143.26;96.50
77106;BME280;66057;54.718;18.426;2023-08-31T03:30:33;47534.94;;;-143.26;96.44
77106;BME280;66057;54.718;18.426;2023-08-31T03:32:58;47546.66;;;-143.26;96.63
77106;BME280;66057;54.718;18.426;2023-08-31T03:35:24;47531.06;;;-143.26;96.32
77106;BME280;66057;54.718;18.426;2023-08-31T03:37:52;47536.91;;;-143.26;96.63
77106;BME280;66057;54.718;18.426;2023-08-31T03:40:18;47493.97;;;-143.26;96.80
77106;BME280;66057;54.718;18.426;2023-08-31T03:42:45;47492.03;;;-143.26;97.14
77106;BME280;66057;54.718;18.426;2023-08-31T03:45:11;47521.28;;;-143.26;96.79
77106;BME280;66057;54.718;18.426;2023-08-31T03:47:37;47515.44;;;-143.26;97.20
77106;BME280;66057;54.718;18.426;2023-08-31T03:50:05;47507.63;;;-143.26;96.45
77106;BME280;66057;54.718;18.426;2023-08-31T03:52:32;47515.44;;;-143.26;96.51
77106;BME280;66057;54.718;18.426;2023-08-31T03:54:58;47519.34;;;-143.26;96.93
77106;BME280;66057;54.718;18.426;2023-08-31T03:57:24;47523.25;;;-143.26;96.61
77106;BME280;66057;54.718;18.426;2023-08-31T03:59:50;47540.81;;;-143.26;96.35
77106;BME280;66057;54.718;18.426;2023-08-31T04:02:15;47536.91;;;-143.26;96.68
77106;BME280;66057;54.718;18.426;2023-08-31T04:04:41;47509.59;;;-143.26;96.92
77106;BME280;66057;54.718;18.426;2023-08-31T04:07:07;47527.16;;;-143.26;96.75
77106;BME280;66057;54.718;18.426;2023-08-31T04:09:32;47538.84;;;-143.26;97.12
77106;BME280;66057;54.718;18.426;2023-08-31T04:11:58;47499.84;;;-143.26;96.69
77106;BME280;66057;54.718;18.426;2023-08-31T04:14:27;47529.09;;;-143.26;96.89
77106;BME280;66057;54.718;18.426;2023-08-31T04:16:54;47497.88;;;-143.26;97.00
77106;BME280;66057;54.718;18.426;2023-08-31T04:19:20;47573.97;;;-143.26;96.63
77106;BME280;66057;54.718;18.426;2023-08-31T04:21:46;47521.28;;;-143.26;96.83
77106;BME280;66057;54.718;18.426;2023-08-31T04:24:12;47509.59;;;-143.26;97.13
77106;BME280;66057;54.718;18.426;2023-08-31T04:26:37;47523.25;;;-143.26;97.69
77106;BME280;66057;54.718;18.426;2023-08-31T04:29:03;47521.28;;;-143.26;97.05
77106;BME280;66057;54.718;18.426;2023-08-31T04:31:31;47486.19;;;-143.26;97.69
77106;BME280;66057;54.718;18.426;2023-08-31T04:33:58;47525.19;;;-143.26;97.22
77106;BME280;66057;54.718;18.426;2023-08-31T04:36:24;47548.59;;;-143.26;97.34
77106;BME280;66057;54.718;18.426;2023-08-31T04:38:51;47533.00;;;-143.26;97.29
77106;BME280;66057;54.718;18.426;2023-08-31T04:41:17;47533.00;;;-143.26;97.97
77106;BME280;66057;54.718;18.426;2023-08-31T04:43:43;47501.78;;;-143.26;98.15
77106;BME280;66057;54.718;18.426;2023-08-31T04:46:09;47521.28;;;-143.26;97.66
77106;BME280;66057;54.718;18.426;2023-08-31T04:48:35;47552.50;;;-143.26;97.80
77106;BME280;66057;54.718;18.426;2023-08-31T04:51:02;47497.88;;;-143.26;97.89
77106;BME280;66057;54.718;18.426;2023-08-31T04:53:29;47513.50;;;-143.26;98.72
77106;BME280;66057;54.718;18.426;2023-08-31T04:55:55;47529.09;;;-143.26;98.26
77106;BME280;66057;54.718;18.426;2023-08-31T04:58:21;47505.69;;;-143.26;98.59
77106;BME280;66057;54.718;18.426;2023-08-31T05:00:47;47533.00;;;-143.26;98.27
77106;BME280;66057;54.718;18.426;2023-08-31T05:03:13;47517.41;;;-143.26;98.35
77106;BME280;66057;54.718;18.426;2023-08-31T05:05:40;47495.94;;;-143.26;98.36
77106;BME280;66057;54.718;18.426;2023-08-31T05:08:08;47519.34;;;-143.26;99.05
77106;BME280;66057;54.718;18.426;2023-08-31T05:10:33;47490.09;;;-143.26;98.72
77106;BME280;66057;54.718;18.426;2023-08-31T05:13:00;47517.41;;;-143.26;98.88
77106;BME280;66057;54.718;18.426;2023-08-31T05:15:25;47501.78;;;-143.26;98.76
77106;BME280;66057;54.718;18.426;2023-08-31T05:17:53;47552.50;;;-143.26;98.72
77106;BME280;66057;54.718;18.426;2023-08-31T05:20:20;47515.44;;;-143.26;98.67
77106;BME280;66057;54.718;18.426;2023-08-31T05:22:48;47511.53;;;-143.26;99.13
77106;BME280;66057;54.718;18.426;2023-08-31T05:25:13;47533.00;;;-143.26;99.52
77106;BME280;66057;54.718;18.426;2023-08-31T05:27:40;47521.28;;;-143.26;99.16
77106;BME280;66057;54.718;18.426;2023-08-31T05:30:06;47525.19;;;-143.26;98.83
77106;BME280;66057;54.718;18.426;2023-08-31T05:32:32;47499.84;;;-143.26;99.20
77106;BME280;66057;54.718;18.426;2023-08-31T05:34:57;47495.94;;;-143.26;98.74
77106;BME280;66057;54.718;18.426;2023-08-31T05:37:25;47538.84;;;-143.26;98.90
77106;BME280;66057;54.718;18.426;2023-08-31T05:39:51;47517.41;;;-143.26;98.67
77106;BME280;66057;54.718;18.426;2023-08-31T05:42:17;47503.75;;;-143.26;99.31
77106;BME280;66057;54.718;18.426;2023-08-31T05:44:43;47521.28;;;-143.26;98.91
77106;BME280;66057;54.718;18.426;2023-08-31T05:47:09;47525.19;;;-143.26;99.29
77106;BME280;66057;54.718;18.426;2023-08-31T05:49:35;47511.53;;;-143.26;99.29
77106;BME280;66057;54.718;18.426;2023-08-31T05:52:01;47517.41;;;-143.26;98.86
77106;BME280;66057;54.718;18.426;2023-08-31T05:54:26;47511.53;;;-143.26;98.71
77106;BME280;66057;54.718;18.426;2023-08-31T05:56:53;47517.41;;;-143.26;99.38
77106;BME280;66057;54.718;18.426;2023-08-31T05:59:18;47482.28;;;-143.26;98.81
77106;BME280;66057;54.718;18.426;2023-08-31T06:01:44;47523.25;;;-143.26;98.90
77106;BME280;66057;54.718;18.426;2023-08-31T06:04:10;47521.28;;;-143.26;98.89
77106;BME280;66057;54.718;18.426;2023-08-31T06:06:35;47497.88;;;-143.26;98.92
77106;BME280;66057;54.718;18.426;2023-08-31T06:09:01;47511.53;;;-143.26;98.80
77106;BME280;66057;54.718;18.426;2023-08-31T06:11:27;47488.13;;;-143.26;98.75
77106;BME280;66057;54.718;18.426;2023-08-31T06:13:53;47519.34;;;-143.26;97.91
77106;BME280;66057;54.718;18.426;2023-08-31T06:16:19;47521.28;;;-143.26;97.94
77106;BME280;66057;54.718;18.426;2023-08-31T06:18:45;47497.88;;;-143.26;97.53
77106;BME280;66057;54.718;18.426;2023-08-31T06:21:11;47515.44;;;-143.26;97.54
77106;BME280;66057;54.718;18.426;2023-08-31T06:23:37;47517.41;;;-143.26;98.05
77106;BME280;66057;54.718;18.426;2023-08-31T06:26:03;47533.00;;;-143.26;97.81
77106;BME280;66057;54.718;18.426;2023-08-31T06:28:29;47501.78;;;-143.26;97.67
77106;BME280;66057;54.718;18.426;2023-08-31T06:30:55;47523.25;;;-143.26;97.91
77106;BME280;66057;54.718;18.426;2023-08-31T06:33:20;47509.59;;;-143.26;98.10
77106;BME280;66057;54.718;18.426;2023-08-31T06:35:47;47493.97;;;-143.26;98.37
77106;BME280;66057;54.718;18.426;2023-08-31T06:38:18;47493.97;;;-143.26;98.28
77106;BME280;66057;54.718;18.426;2023-08-31T06:40:44;47517.41;;;-143.26;98.33
77106;BME280;66057;54.718;18.426;2023-08-31T06:43:10;47503.75;;;-143.26;98.33
77106;BME280;66057;54.718;18.426;2023-08-31T06:45:36;47525.19;;;-143.26;98.73
77106;BME280;66057;54.718;18.426;2023-08-31T06:48:01;47507.63;;;-143.26;98.98
77106;BME280;66057;54.718;18.426;2023-08-31T06:50:28;47519.34;;;-143.26;98.56
77106;BME280;66057;54.718;18.426;2023-08-31T06:52:53;47503.75;;;-143.26;98.63
77106;BME280;66057;54.718;18.426;2023-08-31T06:55:19;47507.63;;;-143.26;98.45
77106;BME280;66057;54.718;18.426;2023-08-31T06:57:45;47495.94;;;-143.26;98.43
77106;BME280;66057;54.718;18.426;2023-08-31T07:00:11;47492.03;;;-143.26;98.47
77106;BME280;66057;54.718;18.426;2023-08-31T07:02:40;47503.75;;;-143.26;98.02
77106;BME280;66057;54.718;18.426;2023-08-31T07:05:12;47515.44;;;-143.26;97.96
77106;BME280;66057;54.718;18.426;2023-08-31T07:07:38;47486.19;;;-143.26;97.57
77106;BME280;66057;54.718;18.426;2023-08-31T07:10:05;47517.41;;;-143.26;97.78
77106;BME280;66057;54.718;18.426;2023-08-31T07:12:31;47521.28;;;-143.26;97.39
77106;BME280;66057;54.718;18.426;2023-08-31T07:14:57;47493.97;;;-143.26;97.07
77106;BME280;66057;54.718;18.426;2023-08-31T07:17:23;47462.78;;;-143.26;97.25
77106;BME280;66057;54.718;18.426;2023-08-31T07:19:49;47490.09;;;-143.26;97.22
77106;BME280;66057;54.718;18.426;2023-08-31T07:22:14;47503.75;;;-143.26;96.96
77106;BME280;66057;54.718;18.426;2023-08-31T07:24:40;47482.28;;;-143.26;97.43
77106;BME280;66057;54.718;18.426;2023-08-31T07:27:06;47493.97;;;-143.26;96.94
77106;BME280;66057;54.718;18.426;2023-08-31T07:29:32;47482.28;;;-143.26;96.59
77106;BME280;66057;54.718;18.426;2023-08-31T07:31:58;47476.44;;;-143.26;96.77
77106;BME280;66057;54.718;18.426;2023-08-31T07:34:24;47488.13;;;-143.26;96.18
77106;BME280;66057;54.718;18.426;2023-08-31T07:36:50;47493.97;;;-143.26;95.95
77106;BME280;66057;54.718;18.426;2023-08-31T07:39:16;47513.50;;;-143.26;95.76
77106;BME280;66057;54.718;18.426;2023-08-31T07:41:45;47525.19;;;-143.26;95.56
77106;BME280;66057;54.718;18.426;2023-08-31T07:44:11;47501.78;;;-143.26;95.12
77106;BME280;66057;54.718;18.426;2023-08-31T07:46:36;47480.31;;;-143.26;95.12
77106;BME280;66057;54.718;18.426;2023-08-31T07:49:02;47505.69;;;-143.26;95.16
77106;BME280;66057;54.718;18.426;2023-08-31T07:51:29;47474.47;;;-143.26;95.11
77106;BME280;66057;54.718;18.426;2023-08-31T07:53:55;47468.63;;;-143.26;94.87
77106;BME280;66057;54.718;18.426;2023-08-31T07:56:22;47472.53;;;-143.26;94.91
77106;BME280;66057;54.718;18.426;2023-08-31T07:58:49;47486.19;;;-143.26;94.31
77106;BME280;66057;54.718;18.426;2023-08-31T08:01:15;47474.47;;;-143.26;94.10
77106;BME280;66057;54.718;18.426;2023-08-31T08:03:41;47492.03;;;-143.26;93.86
77106;BME280;66057;54.718;18.426;2023-08-31T08:06:07;47460.81;;;-143.26;93.66
77106;BME280;66057;54.718;18.426;2023-08-31T08:08:33;47476.44;;;-143.26;93.23
77106;BME280;66057;54.718;18.426;2023-08-31T08:10:58;47443.25;;;-143.26;93.45
77106;BME280;66057;54.718;18.426;2023-08-31T08:13:25;47474.47;;;-143.26;93.24
77106;BME280;66057;54.718;18.426;2023-08-31T08:15:51;47497.88;;;-143.26;92.83
77106;BME280;66057;54.718;18.426;2023-08-31T08:18:17;47447.16;;;-143.26;93.19
77106;BME280;66057;54.718;18.426;2023-08-31T08:20:42;47497.88;;;-143.26;92.50
77106;BME280;66057;54.718;18.426;2023-08-31T08:23:08;47470.56;;;-143.26;92.04
77106;BME280;66057;54.718;18.426;2023-08-31T08:25:34;47497.88;;;-143.26;92.36
77106;BME280;66057;54.718;18.426;2023-08-31T08:28:00;47454.97;;;-143.26;92.41
77106;BME280;66057;54.718;18.426;2023-08-31T08:30:26;47476.44;;;-143.26;90.94
77106;BME280;66057;54.718;18.426;2023-08-31T08:32:52;47470.56;;;-143.26;91.02
77106;BME280;66057;54.718;18.426;2023-08-31T08:35:17;47458.88;;;-143.26;90.99
77106;BME280;66057;54.718;18.426;2023-08-31T08:37:43;47454.97;;;-143.26;91.05
77106;BME280;66057;54.718;18.426;2023-08-31T08:40:09;47456.91;;;-143.26;90.57
77106;BME280;66057;54.718;18.426;2023-08-31T08:42:41;47458.88;;;-143.26;90.36
77106;BME280;66057;54.718;18.426;2023-08-31T08:45:13;47454.97;;;-143.26;89.40
77106;BME280;66057;54.718;18.426;2023-08-31T08:47:44;47439.34;;;-143.26;87.99
77106;BME280;66057;54.718;18.426;2023-08-31T08:50:12;47449.13;;;-143.26;87.59
77106;BME280;66057;54.718;18.426;2023-08-31T08:52:39;47464.72;;;-143.26;87.67
77106;BME280;66057;54.718;18.426;2023-08-31T08:55:05;47453.00;;;-143.26;86.96
77106;BME280;66057;54.718;18.426;2023-08-31T08:57:31;47437.41;;;-143.26;86.39
77106;BME280;66057;54.718;18.426;2023-08-31T08:59:58;47441.31;;;-143.26;86.16
77106;BME280;66057;54.718;18.426;2023-08-31T09:02:24;47449.13;;;-143.26;86.45
77106;BME280;66057;54.718;18.426;2023-08-31T09:04:50;47466.66;;;-143.26;87.10
77106;BME280;66057;54.718;18.426;2023-08-31T09:07:21;47443.25;;;-143.26;85.25
77106;BME280;66057;54.718;18.426;2023-08-31T09:09:51;47439.34;;;-143.26;83.92
77106;BME280;66057;54.718;18.426;2023-08-31T09:12:18;47449.13;;;-143.26;83.53
77106;BME280;66057;54.718;18.426;2023-08-31T09:14:56;47419.84;;;-143.26;83.58
77106;BME280;66057;54.718;18.426;2023-08-31T09:17:23;47443.25;;;-143.26;83.88
77106;BME280;66057;54.718;18.426;2023-08-31T09:19:59;47435.47;;;-143.26;82.86
77106;BME280;66057;54.718;18.426;2023-08-31T09:22:26;47462.78;;;-143.26;84.02
77106;BME280;66057;54.718;18.426;2023-08-31T09:24:52;47435.47;;;-143.26;83.49
77106;BME280;66057;54.718;18.426;2023-08-31T09:27:20;47474.47;;;-143.26;82.90
77106;BME280;66057;54.718;18.426;2023-08-31T09:29:54;47482.28;;;-143.26;82.50
77106;BME280;66057;54.718;18.426;2023-08-31T09:32:21;47460.81;;;-143.26;82.97
77106;BME280;66057;54.718;18.426;2023-08-31T09:34:47;47445.22;;;-143.26;82.92
77106;BME280;66057;54.718;18.426;2023-08-31T09:37:15;47464.72;;;-143.26;82.70
77106;BME280;66057;54.718;18.426;2023-08-31T09:39:41;47462.78;;;-143.26;82.87
77106;BME280;66057;54.718;18.426;2023-08-31T09:42:08;47464.72;;;-143.26;82.06
77106;BME280;66057;54.718;18.426;2023-08-31T09:44:40;47433.50;;;-143.26;82.37
77106;BME280;66057;54.718;18.426;2023-08-31T09:47:05;47458.88;;;-143.26;81.79
77106;BME280;66057;54.718;18.426;2023-08-31T09:49:32;47400.34;;;-143.26;81.89
77106;BME280;66057;54.718;18.426;2023-08-31T09:52:01;47454.97;;;-143.26;82.81
77106;BME280;66057;54.718;18.426;2023-08-31T09:54:29;47462.78;;;-143.26;81.98
77106;BME280;66057;54.718;18.426;2023-08-31T09:56:55;47458.88;;;-143.26;81.75
77106;BME280;66057;54.718;18.426;2023-08-31T09:59:22;47460.81;;;-143.26;81.24
77106;BME280;66057;54.718;18.426;2023-08-31T10:01:49;47449.13;;;-143.26;82.43
77106;BME280;66057;54.718;18.426;2023-08-31T10:04:15;47437.41;;;-143.26;81.35
77106;BME280;66057;54.718;18.426;2023-08-31T10:06:42;47435.47;;;-143.26;80.51
77106;BME280;66057;54.718;18.426;2023-08-31T10:09:08;47449.13;;;-143.26;80.05
77106;BME280;66057;54.718;18.426;2023-08-31T10:11:40;47449.13;;;-143.26;79.06
77106;BME280;66057;54.718;18.426;2023-08-31T10:14:08;47437.41;;;-143.26;79.26
77106;BME280;66057;54.718;18.426;2023-08-31T10:16:35;47427.66;;;-143.26;79.40
77106;BME280;66057;54.718;18.426;2023-08-31T10:19:02;47451.06;;;-143.26;80.20
77106;BME280;66057;54.718;18.426;2023-08-31T10:21:28;47439.34;;;-143.26;79.05
77106;BME280;66057;54.718;18.426;2023-08-31T10:23:54;47431.56;;;-143.26;78.66
77106;BME280;66057;54.718;18.426;2023-08-31T10:26:31;47431.56;;;-143.26;78.02
77106;BME280;66057;54.718;18.426;2023-08-31T10:28:59;47435.47;;;-143.26;77.86
77106;BME280;66057;54.718;18.426;2023-08-31T10:31:32;47445.22;;;-143.26;76.49
77106;BME280;66057;54.718;18.426;2023-08-31T10:34:03;47427.66;;;-143.26;76.87
77106;BME280;66057;54.718;18.426;2023-08-31T10:36:36;47394.47;;;-143.26;77.13
77106;BME280;66057;54.718;18.426;2023-08-31T10:39:06;47427.66;;;-143.26;76.90
77106;BME280;66057;54.718;18.426;2023-08-31T10:41:36;47433.50;;;-143.26;75.43
77106;BME280;66057;54.718;18.426;2023-08-31T10:44:01;47453.00;;;-143.26;76.08
77106;BME280;66057;54.718;18.426;2023-08-31T10:46:35;47419.84;;;-143.26;74.69
77106;BME280;66057;54.718;18.426;2023-08-31T10:51:38;47433.50;;;-143.26;74.44
77106;BME280;66057;54.718;18.426;2023-08-31T10:54:04;47431.56;;;-143.26;75.23
77106;BME280;66057;54.718;18.426;2023-08-31T10:56:31;47435.47;;;-143.26;73.30
77106;BME280;66057;54.718;18.426;2023-08-31T10:59:00;47419.84;;;-143.26;73.32
77106;BME280;66057;54.718;18.426;2023-08-31T11:01:58;47421.78;;;-143.26;72.11
77106;BME280;66057;54.718;18.426;2023-08-31T11:04:28;47435.47;;;-143.26;71.73
77106;BME280;66057;54.718;18.426;2023-08-31T11:07:20;47392.53;;;-143.26;71.97
77106;BME280;66057;54.718;18.426;2023-08-31T11:09:50;47404.25;;;-143.26;71.49
77106;BME280;66057;54.718;18.426;2023-08-31T11:12:16;47392.53;;;-143.26;71.59
77106;BME280;66057;54.718;18.426;2023-08-31T11:14:41;47425.69;;;-143.26;68.30
77106;BME280;66057;54.718;18.426;2023-08-31T11:17:07;47415.94;;;-143.26;70.19
77106;BME280;66057;54.718;18.426;2023-08-31T11:19:35;47396.44;;;-143.26;71.12
77106;BME280;66057;54.718;18.426;2023-08-31T11:22:02;47400.34;;;-143.26;68.36
77106;BME280;66057;54.718;18.426;2023-08-31T11:24:32;47427.66;;;-143.26;67.81
77106;BME280;66057;54.718;18.426;2023-08-31T11:26:58;47400.34;;;-143.26;68.80
77106;BME280;66057;54.718;18.426;2023-08-31T11:29:24;47378.88;;;-143.26;64.67
77106;BME280;66057;54.718;18.426;2023-08-31T11:31:50;47435.47;;;-143.26;64.25
77106;BME280;66057;54.718;18.426;2023-08-31T11:34:17;47400.34;;;-143.26;66.23
77106;BME280;66057;54.718;18.426;2023-08-31T11:36:45;47404.25;;;-143.26;66.14
77106;BME280;66057;54.718;18.426;2023-08-31T11:39:14;47423.75;;;-143.26;66.91
77106;BME280;66057;54.718;18.426;2023-08-31T11:41:43;47404.25;;;-143.26;66.26
77106;BME280;66057;54.718;18.426;2023-08-31T11:44:13;47410.09;;;-143.26;66.05
77106;BME280;66057;54.718;18.426;2023-08-31T11:46:43;47412.03;;;-143.26;65.88
77106;BME280;66057;54.718;18.426;2023-08-31T11:49:10;47384.72;;;-143.26;66.94
77106;BME280;66057;54.718;18.426;2023-08-31T11:51:36;47388.63;;;-143.26;65.41
77106;BME280;66057;54.718;18.426;2023-08-31T11:54:04;47419.84;;;-143.26;65.65
77106;BME280;66057;54.718;18.426;2023-08-31T11:56:40;47415.94;;;-143.26;66.14
77106;BME280;66057;54.718;18.426;2023-08-31T11:59:09;47406.19;;;-143.26;67.20
77106;BME280;66057;54.718;18.426;2023-08-31T12:01:42;47374.97;;;-143.26;67.45
77106;BME280;66057;54.718;18.426;2023-08-31T12:04:21;47382.78;;;-143.26;66.31
77106;BME280;66057;54.718;18.426;2023-08-31T12:06:52;47388.63;;;-143.26;65.20
77106;BME280;66057;54.718;18.426;2023-08-31T12:09:20;47386.69;;;-143.26;65.16
77106;BME280;66057;54.718;18.426;2023-08-31T12:11:50;47343.75;;;-143.26;65.35
77106;BME280;66057;54.718;18.426;2023-08-31T12:14:21;47400.34;;;-143.26;64.44
77106;BME280;66057;54.718;18.426;2023-08-31T12:16:48;47384.72;;;-143.26;62.95
77106;BME280;66057;54.718;18.426;2023-08-31T12:19:14;47384.72;;;-143.26;63.70
77106;BME280;66057;54.718;18.426;2023-08-31T12:21:42;47384.72;;;-143.26;65.03
77106;BME280;66057;54.718;18.426;2023-08-31T12:24:09;47417.91;;;-143.26;65.45
77106;BME280;66057;54.718;18.426;2023-08-31T12:26:36;47392.53;;;-143.26;66.17
77106;BME280;66057;54.718;18.426;2023-08-31T12:29:02;47380.81;;;-143.26;65.39
77106;BME280;66057;54.718;18.426;2023-08-31T12:31:31;47412.03;;;-143.26;65.10
77106;BME280;66057;54.718;18.426;2023-08-31T12:33:57;47376.94;;;-143.26;64.01
77106;BME280;66057;54.718;18.426;2023-08-31T12:36:23;47402.28;;;-143.26;61.55